createdAt,value
2022-11-25T00:02:02.909Z,4.80
2022-11-25T00:05:05.550Z,4.90
2022-11-25T00:08:07.664Z,4.90
2022-11-25T00:11:10.119Z,4.80
2022-11-25T00:14:14.852Z,4.80
2022-11-25T00:17:16.990Z,4.80
2022-11-25T00:20:22.520Z,4.70
2022-11-25T00:23:26.903Z,4.80
2022-11-25T00:26:34.615Z,4.70
2022-11-25T00:29:39.289Z,4.80
2022-11-25T00:32:41.357Z,4.80
2022-11-25T00:35:43.420Z,4.90
2022-11-25T00:38:47.206Z,4.90
2022-11-25T00:42:07.403Z,4.90
2022-11-25T00:45:10.153Z,4.90
2022-11-25T00:48:12.336Z,4.90
2022-11-25T00:51:14.452Z,4.90
2022-11-25T00:54:16.641Z,4.90
2022-11-25T00:57:20.791Z,4.90
2022-11-25T01:00:22.971Z,4.90
2022-11-25T01:03:25.028Z,5.00
2022-11-25T01:06:27.807Z,5.00
2022-11-25T01:09:30.837Z,5.00
2022-11-25T01:12:32.952Z,5.10
2022-11-25T01:15:37.556Z,5.10
2022-11-25T01:18:39.643Z,5.10
2022-11-25T01:21:41.998Z,5.20
2022-11-25T01:24:46.700Z,5.20
2022-11-25T01:27:48.911Z,5.30
2022-11-25T01:31:03.092Z,5.30
2022-11-25T01:34:27.060Z,5.30
2022-11-25T01:37:32.428Z,5.30
2022-11-25T01:40:34.445Z,5.40
2022-11-25T01:43:36.803Z,5.50
2022-11-25T01:47:06.580Z,5.50
2022-11-25T01:50:10.828Z,5.50
2022-11-25T01:53:13.017Z,5.50
2022-11-25T01:56:15.143Z,5.40
2022-11-25T01:59:17.219Z,5.40
2022-11-25T02:02:19.335Z,5.40
2022-11-25T02:05:51.231Z,5.40
2022-11-25T02:09:01.270Z,5.40
2022-11-25T02:12:03.475Z,5.50
2022-11-25T02:15:06.461Z,5.60
2022-11-25T02:18:08.705Z,5.60
2022-11-25T02:21:10.775Z,5.60
2022-11-25T02:24:21.991Z,5.60
2022-11-25T02:27:24.037Z,5.60
2022-11-25T02:30:26.159Z,5.80
2022-11-25T02:33:29.121Z,5.80
2022-11-25T02:36:31.956Z,5.80
2022-11-25T02:39:34.012Z,5.80
2022-11-25T02:42:36.139Z,5.70
2022-11-25T02:46:01.064Z,5.60
2022-11-25T02:49:10.841Z,5.60
2022-11-25T02:52:13.830Z,5.50
2022-11-25T02:55:17.274Z,5.50
2022-11-25T02:58:19.488Z,5.50
2022-11-25T03:01:21.673Z,5.40
2022-11-25T03:04:25.253Z,5.40
2022-11-25T03:07:27.350Z,5.30
2022-11-25T03:10:30.146Z,5.50
2022-11-25T03:13:34.219Z,5.90
2022-11-25T03:16:36.356Z,6.10
2022-11-25T03:19:39.544Z,6.20
2022-11-25T03:22:42.789Z,6.40
2022-11-25T03:25:44.892Z,6.40
2022-11-25T03:28:46.922Z,6.40
2022-11-25T03:31:49.132Z,6.40
2022-11-25T03:34:51.381Z,6.40
2022-11-25T03:37:53.591Z,6.50
2022-11-25T03:40:55.656Z,6.50
2022-11-25T03:43:57.814Z,6.60
2022-11-25T03:46:59.940Z,6.70
2022-11-25T03:50:03.445Z,6.80
2022-11-25T03:53:05.662Z,6.80
2022-11-25T03:56:08.149Z,6.80
2022-11-25T03:59:10.430Z,6.90
2022-11-25T04:02:14.324Z,6.70
2022-11-25T04:05:16.465Z,6.80
2022-11-25T04:08:18.600Z,6.70
2022-11-25T04:11:21.500Z,6.70
2022-11-25T04:14:30.735Z,6.80
2022-11-25T04:17:33.282Z,6.90
2022-11-25T04:20:35.775Z,7.00
2022-11-25T04:23:40.281Z,7.00
2022-11-25T04:26:46.269Z,6.90
2022-11-25T04:29:48.442Z,6.80
2022-11-25T04:32:51.010Z,6.80
2022-11-25T04:35:53.100Z,6.80
2022-11-25T04:38:55.945Z,6.90
2022-11-25T04:42:16.557Z,6.80
2022-11-25T04:45:23.699Z,6.90
2022-11-25T04:48:28.873Z,6.90
2022-11-25T04:51:31.752Z,6.90
2022-11-25T04:54:37.446Z,6.80
2022-11-25T04:57:39.634Z,6.70
2022-11-25T05:00:41.995Z,6.80
2022-11-25T05:03:54.496Z,6.70
2022-11-25T05:07:00.017Z,6.70
2022-11-25T05:10:02.906Z,6.50
2022-11-25T05:13:18.329Z,6.60
2022-11-25T05:16:20.591Z,6.70
2022-11-25T05:19:22.837Z,6.60
2022-11-25T05:22:28.580Z,6.60
2022-11-25T05:25:31.163Z,6.60
2022-11-25T05:29:00.036Z,6.50
2022-11-25T05:32:05.348Z,6.40
2022-11-25T05:35:08.332Z,6.40
2022-11-25T05:38:10.665Z,6.10
2022-11-25T05:41:13.709Z,6.10
2022-11-25T05:44:22.653Z,6.10
2022-11-25T05:47:26.874Z,6.20
2022-11-25T05:50:29.383Z,6.20
2022-11-25T05:53:51.473Z,6.10
2022-11-25T05:56:55.996Z,6.10
2022-11-25T06:00:09.762Z,5.90
2022-11-25T06:03:19.593Z,5.80
2022-11-25T06:06:22.101Z,5.80
2022-11-25T06:09:24.361Z,5.90
2022-11-25T06:12:26.731Z,5.90
2022-11-25T06:15:29.409Z,5.90
2022-11-25T06:18:33.365Z,5.80
2022-11-25T06:21:35.396Z,5.70
2022-11-25T06:24:37.842Z,5.80
2022-11-25T06:28:10.651Z,5.70
2022-11-25T06:31:20.514Z,5.70
2022-11-25T06:34:42.031Z,5.70
2022-11-25T06:37:51.504Z,5.70
2022-11-25T06:40:56.379Z,5.70
2022-11-25T06:44:01.230Z,5.60
2022-11-25T06:47:03.315Z,5.50
2022-11-25T06:50:06.537Z,5.50
2022-11-25T06:53:08.659Z,5.60
2022-11-25T06:56:14.536Z,5.60
2022-11-25T06:59:16.608Z,5.70
2022-11-25T07:02:18.766Z,5.60
2022-11-25T07:05:20.915Z,5.60
2022-11-25T07:08:25.690Z,5.50
2022-11-25T07:11:36.197Z,5.50
2022-11-25T07:14:38.564Z,5.50
2022-11-25T07:17:40.704Z,5.30
2022-11-25T07:20:42.901Z,5.30
2022-11-25T07:23:45.765Z,5.30
2022-11-25T07:26:47.906Z,5.20
2022-11-25T07:30:03.510Z,5.00
2022-11-25T07:33:12.313Z,4.90
2022-11-25T07:36:14.980Z,4.90
2022-11-25T07:39:20.181Z,4.80
2022-11-25T07:42:22.240Z,4.70
2022-11-25T07:45:24.502Z,4.60
2022-11-25T07:48:33.908Z,4.50
2022-11-25T07:51:37.814Z,4.50
2022-11-25T07:54:39.822Z,4.40
2022-11-25T07:57:41.901Z,4.30
2022-11-25T08:00:43.945Z,4.40
2022-11-25T08:03:47.580Z,4.40
2022-11-25T08:06:51.971Z,4.50
2022-11-25T08:09:54.069Z,4.50
2022-11-25T08:12:56.106Z,4.80
2022-11-25T08:16:00.167Z,4.80
2022-11-25T08:19:04.005Z,4.80
2022-11-25T08:22:06.672Z,4.90
2022-11-25T08:25:08.986Z,4.80
2022-11-25T08:28:11.084Z,4.80
2022-11-25T08:31:21.910Z,5.00
2022-11-25T08:34:24.602Z,5.00
2022-11-25T08:37:32.579Z,5.20
2022-11-25T08:40:35.829Z,5.20
2022-11-25T08:43:37.916Z,5.10
2022-11-25T08:46:40.133Z,5.10
2022-11-25T08:49:42.250Z,5.10
2022-11-25T08:52:44.449Z,5.10
2022-11-25T08:55:46.494Z,5.20
2022-11-25T08:58:51.670Z,5.30
2022-11-25T09:01:53.810Z,5.30
2022-11-25T09:04:55.896Z,5.40
2022-11-25T09:07:57.992Z,5.50
2022-11-25T09:11:00.405Z,5.60
2022-11-25T09:14:02.624Z,5.80
2022-11-25T09:17:10.544Z,5.90
2022-11-25T09:20:12.784Z,6.00
2022-11-25T09:23:15.045Z,6.10
2022-11-25T09:26:32.095Z,6.20
2022-11-25T09:29:34.536Z,6.40
2022-11-25T09:32:36.760Z,6.60
2022-11-25T09:35:38.877Z,6.60
2022-11-25T09:38:44.019Z,6.80
2022-11-25T09:42:46.335Z,6.90
2022-11-25T09:46:41.912Z,7.10
2022-11-25T09:50:00.436Z,7.20
2022-11-25T09:53:34.102Z,7.40
2022-11-25T09:56:45.489Z,7.50
2022-11-25T10:00:07.567Z,7.60
2022-11-25T10:03:42.657Z,7.60
2022-11-25T10:06:55.815Z,7.60
2022-11-25T10:09:58.192Z,7.80
2022-11-25T10:13:00.241Z,7.90
2022-11-25T10:16:04.084Z,7.90
2022-11-25T10:19:53.206Z,8.00
2022-11-25T10:23:05.118Z,8.10
2022-11-25T10:26:15.951Z,8.30
2022-11-25T10:29:24.452Z,8.30
2022-11-25T10:32:28.113Z,8.50
2022-11-25T10:35:39.212Z,8.60
2022-11-25T10:39:19.248Z,8.60
2022-11-25T10:42:23.869Z,8.50
2022-11-25T10:45:32.093Z,8.60
2022-11-25T10:49:07.969Z,8.80
2022-11-25T10:52:13.966Z,9.00
2022-11-25T10:55:36.889Z,9.20
2022-11-25T10:58:40.270Z,9.20
2022-11-25T11:01:42.616Z,9.40
2022-11-25T11:04:58.112Z,9.30
2022-11-25T11:08:12.293Z,9.00
2022-11-25T11:11:20.518Z,9.10
2022-11-25T11:14:22.670Z,9.40
2022-11-25T11:17:36.766Z,9.50
2022-11-25T11:20:39.532Z,9.50
2022-11-25T11:23:53.175Z,9.20
2022-11-25T11:27:09.651Z,9.00
2022-11-25T11:30:23.891Z,8.80
2022-11-25T11:33:34.882Z,8.80
2022-11-25T11:37:14.216Z,8.70
2022-11-25T11:40:46.515Z,8.80
2022-11-25T11:44:20.803Z,10.60
2022-11-25T11:47:32.814Z,11.00
2022-11-25T11:50:48.462Z,11.30
2022-11-25T11:54:07.909Z,12.40
2022-11-25T11:58:08.515Z,10.80
2022-11-25T12:01:43.796Z,12.10
2022-11-25T12:04:53.179Z,12.70
2022-11-25T12:08:14.241Z,12.60
2022-11-25T12:11:21.332Z,10.20
2022-11-25T12:14:46.715Z,10.30
2022-11-25T12:17:58.842Z,10.50
2022-11-25T12:21:07.114Z,10.60
2022-11-25T12:24:34.395Z,11.00
2022-11-25T12:27:42.652Z,11.50
2022-11-25T12:31:16.636Z,11.10
2022-11-25T12:34:41.074Z,10.50
2022-11-25T12:38:41.532Z,10.30
2022-11-25T12:41:52.408Z,10.20
2022-11-25T12:45:15.749Z,11.90
2022-11-25T12:48:21.439Z,11.00
2022-11-25T12:51:42.456Z,10.60
2022-11-25T12:55:13.857Z,12.80
2022-11-25T12:58:41.254Z,13.50
2022-11-25T13:02:10.998Z,14.20
2022-11-25T13:05:41.321Z,14.20
2022-11-25T13:08:46.061Z,14.20
2022-11-25T13:12:03.498Z,14.10
2022-11-25T13:15:32.401Z,14.00
2022-11-25T13:18:35.045Z,13.80
2022-11-25T13:21:37.094Z,14.00
2022-11-25T13:24:40.712Z,13.50
2022-11-25T13:27:42.926Z,13.50
2022-11-25T13:30:46.868Z,13.20
2022-11-25T13:33:48.832Z,13.80
2022-11-25T13:36:53.064Z,14.00
2022-11-25T13:40:25.485Z,14.20
2022-11-25T13:43:27.695Z,14.20
2022-11-25T13:46:43.669Z,14.40
2022-11-25T13:50:03.861Z,15.10
2022-11-25T13:53:08.350Z,14.90
2022-11-25T13:56:35.859Z,14.60
2022-11-25T13:59:43.584Z,14.30
2022-11-25T14:02:47.178Z,14.60
2022-11-25T14:06:29.893Z,14.80
2022-11-25T14:10:00.394Z,14.70
2022-11-25T14:13:27.812Z,14.80
2022-11-25T14:16:38.763Z,14.90
2022-11-25T14:20:34.011Z,14.90
2022-11-25T14:24:16.264Z,15.20
2022-11-25T14:27:29.220Z,14.70
2022-11-25T14:30:31.601Z,13.70
2022-11-25T14:33:37.992Z,12.60
2022-11-25T14:36:48.945Z,13.30
2022-11-25T14:39:56.572Z,14.00
2022-11-25T14:43:03.961Z,13.50
2022-11-25T14:46:15.696Z,13.30
2022-11-25T14:49:44.915Z,13.00
2022-11-25T14:52:40.576Z,13.40
2022-11-25T14:55:42.808Z,13.20
2022-11-25T14:58:49.407Z,13.70
2022-11-25T15:01:54.197Z,13.70
2022-11-25T15:05:08.117Z,12.70
2022-11-25T15:08:14.727Z,12.40
2022-11-25T15:11:19.121Z,12.20
2022-11-25T15:14:27.795Z,11.90
2022-11-25T15:17:33.554Z,11.50
2022-11-25T15:20:35.814Z,11.10
2022-11-25T15:23:38.003Z,10.90
2022-11-25T15:26:40.085Z,10.60
2022-11-25T15:29:43.103Z,10.30
2022-11-25T15:32:45.144Z,9.70
2022-11-25T15:35:47.444Z,9.40
2022-11-25T15:38:49.513Z,9.10
2022-11-25T15:41:56.491Z,9.00
2022-11-25T15:45:07.057Z,8.80
2022-11-25T15:48:26.117Z,8.70
2022-11-25T15:52:09.272Z,8.60
2022-11-25T15:55:38.363Z,8.60
2022-11-25T15:58:42.364Z,8.40
2022-11-25T16:01:44.469Z,8.30
2022-11-25T16:04:46.549Z,8.20
2022-11-25T16:07:51.750Z,8.20
2022-11-25T16:10:56.750Z,8.20
2022-11-25T16:14:28.219Z,8.20
2022-11-25T16:17:31.664Z,8.20
2022-11-25T16:20:33.723Z,8.20
2022-11-25T16:23:36.869Z,8.20
2022-11-25T16:26:58.337Z,8.20
2022-11-25T16:30:06.432Z,8.20
2022-11-25T16:33:10.649Z,8.20
2022-11-25T16:36:12.673Z,8.20
2022-11-25T16:39:14.812Z,8.20
2022-11-25T16:42:21.476Z,8.20
2022-11-25T16:45:26.130Z,8.10
2022-11-25T16:48:28.194Z,8.10
2022-11-25T16:51:30.313Z,8.00
2022-11-25T16:54:33.854Z,7.80
2022-11-25T16:57:36.041Z,7.70
2022-11-25T17:00:38.072Z,7.70
2022-11-25T17:03:40.122Z,7.70
2022-11-25T17:06:50.552Z,7.60
2022-11-25T17:09:56.257Z,7.70
2022-11-25T17:12:58.344Z,7.70
2022-11-25T17:16:00.595Z,7.80
2022-11-25T17:19:02.847Z,7.90
2022-11-25T17:22:17.146Z,8.00
2022-11-25T17:25:21.115Z,8.10
2022-11-25T17:28:23.196Z,8.20
2022-11-25T17:31:30.909Z,8.30
2022-11-25T17:34:38.034Z,8.30
2022-11-25T17:37:47.094Z,8.40
2022-11-25T17:40:50.565Z,8.40
2022-11-25T17:43:53.751Z,8.40
2022-11-25T17:46:58.030Z,8.30
2022-11-25T17:50:00.094Z,8.20
2022-11-25T17:53:02.158Z,8.20
2022-11-25T17:56:24.774Z,8.10
2022-11-25T17:59:31.813Z,8.10
2022-11-25T18:02:34.023Z,8.10
2022-11-25T18:05:36.344Z,8.10
2022-11-25T18:08:43.511Z,8.00
2022-11-25T18:11:54.596Z,8.00
2022-11-25T18:14:56.713Z,8.00
2022-11-25T18:18:05.722Z,8.10
2022-11-25T18:21:09.201Z,8.10
2022-11-25T18:24:11.477Z,8.00
2022-11-25T18:27:26.938Z,7.90
2022-11-25T18:30:30.800Z,7.90
2022-11-25T18:33:33.040Z,7.80
2022-11-25T18:36:35.268Z,7.90
2022-11-25T18:39:37.473Z,7.90
2022-11-25T18:42:40.788Z,7.80
2022-11-25T18:45:43.237Z,7.90
2022-11-25T18:48:45.492Z,7.80
2022-11-25T18:51:47.693Z,7.80
2022-11-25T18:54:49.966Z,7.80
2022-11-25T18:57:52.418Z,7.90
2022-11-25T19:01:00.825Z,8.00
2022-11-25T19:04:04.437Z,8.00
2022-11-25T19:07:06.664Z,7.90
2022-11-25T19:10:13.513Z,7.90
2022-11-25T19:13:33.734Z,8.00
2022-11-25T19:16:36.097Z,7.90
2022-11-25T19:19:39.277Z,7.90
2022-11-25T19:22:41.584Z,8.00
2022-11-25T19:25:43.809Z,8.00
2022-11-25T19:28:47.265Z,8.10
2022-11-25T19:31:50.258Z,8.00
2022-11-25T19:35:01.207Z,8.00
2022-11-25T19:38:18.582Z,8.10
2022-11-25T19:41:20.752Z,8.10
2022-11-25T19:44:23.027Z,8.00
2022-11-25T19:47:26.180Z,7.90
2022-11-25T19:50:28.391Z,7.90
2022-11-25T19:53:34.074Z,7.90
2022-11-25T19:56:37.716Z,8.00
2022-11-25T19:59:39.784Z,8.00
2022-11-25T20:02:42.490Z,8.00
2022-11-25T20:05:44.651Z,8.00
2022-11-25T20:08:47.078Z,7.90
2022-11-25T20:11:54.178Z,8.00
2022-11-25T20:14:56.327Z,8.00
2022-11-25T20:18:00.082Z,8.00
2022-11-25T20:21:04.128Z,8.00
2022-11-25T20:24:16.670Z,8.00
2022-11-25T20:27:18.744Z,8.10
2022-11-25T20:30:26.713Z,8.10
2022-11-25T20:33:28.725Z,8.10
2022-11-25T20:36:31.890Z,8.10
2022-11-25T20:39:33.935Z,8.10
2022-11-25T20:42:35.985Z,8.10
2022-11-25T20:45:38.195Z,8.10
2022-11-25T20:48:40.275Z,8.00
2022-11-25T20:51:42.533Z,8.00
2022-11-25T20:54:44.698Z,8.00
2022-11-25T20:57:47.037Z,8.00
2022-11-25T21:00:54.154Z,8.00
2022-11-25T21:03:59.199Z,7.90
2022-11-25T21:07:01.372Z,7.90
2022-11-25T21:10:04.078Z,7.90
2022-11-25T21:13:14.725Z,7.80
2022-11-25T21:16:16.837Z,7.80
2022-11-25T21:19:18.961Z,7.90
2022-11-25T21:22:21.031Z,7.90
2022-11-25T21:25:23.113Z,7.90
2022-11-25T21:28:25.742Z,7.90
2022-11-25T21:31:27.886Z,7.90
2022-11-25T21:34:29.996Z,7.90
2022-11-25T21:37:35.653Z,7.90
2022-11-25T21:40:42.758Z,7.90
2022-11-25T21:43:46.723Z,7.90
2022-11-25T21:46:48.842Z,7.90
2022-11-25T21:49:51.078Z,8.00
2022-11-25T21:52:53.115Z,8.00
2022-11-25T21:55:55.178Z,8.10
2022-11-25T21:58:58.437Z,8.00
2022-11-25T22:02:00.493Z,8.00
2022-11-25T22:05:02.560Z,8.10
2022-11-25T22:08:04.867Z,7.90
2022-11-25T22:11:10.942Z,7.90
2022-11-25T22:14:37.301Z,8.00
2022-11-25T22:17:40.538Z,7.90
2022-11-25T22:20:42.936Z,7.90
2022-11-25T22:23:44.991Z,7.90
2022-11-25T22:26:49.171Z,8.00
2022-11-25T22:29:52.426Z,7.90
2022-11-25T22:33:03.777Z,7.90
2022-11-25T22:36:06.233Z,7.90
2022-11-25T22:39:23.629Z,8.00
2022-11-25T22:42:30.694Z,8.00
2022-11-25T22:45:33.821Z,8.00
2022-11-25T22:48:36.856Z,8.00
2022-11-25T22:51:38.891Z,8.10
2022-11-25T22:54:41.207Z,8.10
2022-11-25T22:57:44.600Z,8.10
2022-11-25T23:00:47.040Z,8.10
2022-11-25T23:03:49.137Z,8.00
2022-11-25T23:06:51.173Z,8.00
2022-11-25T23:09:53.344Z,8.00
2022-11-25T23:12:55.546Z,8.10
2022-11-25T23:16:03.924Z,8.10
2022-11-25T23:19:07.040Z,8.10
2022-11-25T23:22:12.349Z,8.00
2022-11-25T23:25:18.984Z,8.00
2022-11-25T23:28:21.128Z,8.00
2022-11-25T23:31:25.613Z,8.20
2022-11-25T23:34:27.684Z,8.00
2022-11-25T23:37:29.776Z,8.10
2022-11-25T23:40:31.820Z,8.10
2022-11-25T23:43:33.906Z,8.30
2022-11-25T23:46:35.964Z,8.30
2022-11-25T23:49:40.639Z,8.40
2022-11-25T23:52:42.866Z,8.40
2022-11-25T23:55:44.906Z,8.50
2022-11-25T23:58:47.084Z,8.50
